createdAt,value
2023-11-01T00:01:14.426Z,1.20
2023-11-01T00:04:16.019Z,1.40
2023-11-01T00:07:17.630Z,1.33
2023-11-01T00:10:19.483Z,1.30
2023-11-01T00:13:21.024Z,1.00
2023-11-01T00:16:22.619Z,0.83
2023-11-01T00:19:24.149Z,1.10
2023-11-01T00:22:25.688Z,1.00
2023-11-01T00:25:27.217Z,0.90
2023-11-01T00:28:28.797Z,1.10
2023-11-01T00:31:30.375Z,0.90
2023-11-01T00:34:31.922Z,1.10
2023-11-01T00:37:33.469Z,1.07
2023-11-01T00:40:35.021Z,1.10
2023-11-01T00:43:36.594Z,1.03
2023-11-01T00:46:38.143Z,1.07
2023-11-01T00:49:39.734Z,0.93
2023-11-01T00:52:41.291Z,1.10
2023-11-01T00:55:42.868Z,1.00
2023-11-01T00:58:44.408Z,0.93
2023-11-01T01:01:46.431Z,1.10
2023-11-01T01:04:48.012Z,1.00
2023-11-01T01:07:49.533Z,0.77
2023-11-01T01:10:51.093Z,0.90
2023-11-01T01:13:52.608Z,1.17
2023-11-01T01:16:54.144Z,0.70
2023-11-01T01:19:55.720Z,0.90
2023-11-01T01:22:57.303Z,0.80
2023-11-01T01:25:58.862Z,0.83
2023-11-01T01:29:00.363Z,0.70
2023-11-01T01:32:01.916Z,0.67
2023-11-01T01:35:03.489Z,1.00
2023-11-01T01:38:05.035Z,0.90
2023-11-01T01:41:06.611Z,0.80
2023-11-01T01:44:08.250Z,0.70
2023-11-01T01:47:09.995Z,1.20
2023-11-01T01:50:11.537Z,1.37
2023-11-01T01:53:13.484Z,1.10
2023-11-01T01:56:15.107Z,1.33
2023-11-01T01:59:16.685Z,1.00
2023-11-01T02:02:18.278Z,0.97
2023-11-01T02:05:20.099Z,0.90
2023-11-01T02:08:21.717Z,0.97
2023-11-01T02:11:23.361Z,0.97
2023-11-01T02:14:25.036Z,0.90
2023-11-01T02:17:26.702Z,1.00
2023-11-01T02:20:28.296Z,0.97
2023-11-01T02:23:29.947Z,0.90
2023-11-01T02:26:31.588Z,1.20
2023-11-01T02:29:33.193Z,0.97
2023-11-01T02:32:34.811Z,0.70
2023-11-01T02:35:36.387Z,0.70
2023-11-01T02:38:38.237Z,0.90
2023-11-01T02:41:39.826Z,1.43
2023-11-01T02:44:41.442Z,1.00
2023-11-01T02:47:43.044Z,1.20
2023-11-01T02:50:44.671Z,0.70
2023-11-01T02:53:46.258Z,0.83
2023-11-01T02:56:47.815Z,0.90
2023-11-01T02:59:49.364Z,0.80
2023-11-01T03:02:51.009Z,0.90
2023-11-01T03:05:52.621Z,0.70
2023-11-01T03:08:54.135Z,1.10
2023-11-01T03:11:55.693Z,0.90
2023-11-01T03:14:57.227Z,0.77
2023-11-01T03:17:58.849Z,0.90
2023-11-01T03:21:05.226Z,0.83
2023-11-01T03:24:06.778Z,1.07
2023-11-01T03:27:08.339Z,0.70
2023-11-01T03:30:09.887Z,0.80
2023-11-01T03:33:11.534Z,0.80
2023-11-01T03:36:13.211Z,0.60
2023-11-01T03:39:14.720Z,0.77
2023-11-01T03:42:16.287Z,0.53
2023-11-01T03:45:17.785Z,0.70
2023-11-01T03:48:19.416Z,0.70
2023-11-01T03:51:20.991Z,0.60
2023-11-01T03:54:22.510Z,0.57
2023-11-01T03:57:24.040Z,0.60
2023-11-01T04:00:25.547Z,0.60
2023-11-01T04:03:27.142Z,0.83
2023-11-01T04:06:28.708Z,0.67
2023-11-01T04:09:30.220Z,0.60
2023-11-01T04:12:31.797Z,0.57
2023-11-01T04:15:33.313Z,0.83
2023-11-01T04:18:34.881Z,0.77
2023-11-01T04:21:36.387Z,1.03
2023-11-01T04:24:37.941Z,0.70
2023-11-01T04:27:39.482Z,1.00
2023-11-01T04:30:41.037Z,0.80
2023-11-01T04:33:42.623Z,1.00
2023-11-01T04:36:44.152Z,0.90
2023-11-01T04:39:45.845Z,0.70
2023-11-01T04:42:47.364Z,0.73
2023-11-01T04:45:48.968Z,0.67
2023-11-01T04:48:50.538Z,0.60
2023-11-01T04:51:52.075Z,0.60
2023-11-01T04:54:53.609Z,0.50
2023-11-01T04:57:55.136Z,0.60
2023-11-01T05:00:58.809Z,0.57
2023-11-01T05:04:00.375Z,0.60
2023-11-01T05:07:02.057Z,0.70
2023-11-01T05:10:03.613Z,0.70
2023-11-01T05:13:05.134Z,0.57
2023-11-01T05:16:06.768Z,0.53
2023-11-01T05:19:08.346Z,0.50
2023-11-01T05:22:09.865Z,0.60
2023-11-01T05:25:11.521Z,0.53
2023-11-01T05:28:13.064Z,0.50
2023-11-01T05:31:17.716Z,0.80
2023-11-01T05:34:19.256Z,0.53
2023-11-01T05:37:20.790Z,0.60
2023-11-01T05:40:22.352Z,0.50
2023-11-01T05:43:23.882Z,0.40
2023-11-01T05:46:25.439Z,0.60
2023-11-01T05:49:27.073Z,0.70
2023-11-01T05:52:28.613Z,0.60
2023-11-01T05:55:38.196Z,0.50
2023-11-01T05:58:50.238Z,0.50
2023-11-01T06:01:51.811Z,0.50
2023-11-01T06:04:53.425Z,1.07
2023-11-01T06:07:54.965Z,0.70
2023-11-01T06:10:56.503Z,0.60
2023-11-01T06:13:58.035Z,0.70
2023-11-01T06:17:02.786Z,0.30
2023-11-01T06:20:06.743Z,0.60
2023-11-01T06:23:08.334Z,0.63
2023-11-01T06:26:09.838Z,0.50
2023-11-01T06:29:11.386Z,0.50
2023-11-01T06:32:17.377Z,0.50
2023-11-01T06:35:18.999Z,0.57
2023-11-01T06:38:20.682Z,0.40
2023-11-01T06:41:22.207Z,0.57
2023-11-01T06:44:23.803Z,0.33
2023-11-01T06:47:25.424Z,0.50
2023-11-01T06:50:27.057Z,0.60
2023-11-01T06:53:28.667Z,0.77
2023-11-01T06:56:30.206Z,0.47
2023-11-01T06:59:31.752Z,0.53
2023-11-01T07:02:33.398Z,0.53
2023-11-01T07:05:35.025Z,0.70
2023-11-01T07:08:36.685Z,0.77
2023-11-01T07:11:38.252Z,0.50
2023-11-01T07:14:39.847Z,0.80
2023-11-01T07:17:41.447Z,0.60
2023-11-01T07:20:43.034Z,0.80
2023-11-01T07:23:44.668Z,0.90
2023-11-01T07:26:46.278Z,0.70
2023-11-01T07:29:47.886Z,0.87
2023-11-01T07:32:49.464Z,0.70
2023-11-01T07:35:53.547Z,1.17
2023-11-01T07:38:55.195Z,0.67
2023-11-01T07:41:56.775Z,0.80
2023-11-01T07:45:01.646Z,0.63
2023-11-01T07:48:03.642Z,0.70
2023-11-01T07:51:05.251Z,0.80
2023-11-01T07:54:06.757Z,0.67
2023-11-01T07:57:08.297Z,0.77
2023-11-01T08:00:09.807Z,0.77
2023-11-01T08:03:11.451Z,0.70
2023-11-01T08:06:13.077Z,0.70
2023-11-01T08:09:14.595Z,0.80
2023-11-01T08:12:16.124Z,0.97
2023-11-01T08:15:17.640Z,1.00
2023-11-01T08:18:19.230Z,0.80
2023-11-01T08:21:20.790Z,0.70
2023-11-01T08:24:22.334Z,0.70
2023-11-01T08:27:23.891Z,0.73
2023-11-01T08:30:25.405Z,0.73
2023-11-01T08:33:27.105Z,0.80
2023-11-01T08:36:28.750Z,0.60
2023-11-01T08:39:30.263Z,0.70
2023-11-01T08:42:31.804Z,0.70
2023-11-01T08:45:33.332Z,0.80
2023-11-01T08:48:34.936Z,0.70
2023-11-01T08:51:36.533Z,0.70
2023-11-01T08:54:38.085Z,0.80
2023-11-01T08:57:39.670Z,0.70
2023-11-01T09:00:45.879Z,0.90
2023-11-01T09:03:52.445Z,1.03
2023-11-01T09:06:54.024Z,0.80
2023-11-01T09:09:57.691Z,0.83
2023-11-01T09:13:01.124Z,0.80
2023-11-01T09:16:02.677Z,0.90
2023-11-01T09:19:04.453Z,0.67
2023-11-01T09:22:05.980Z,0.90
2023-11-01T09:25:07.525Z,0.53
2023-11-01T09:28:09.071Z,0.90
2023-11-01T09:31:10.575Z,0.80
2023-11-01T09:34:12.228Z,0.90
2023-11-01T09:37:13.792Z,0.90
2023-11-01T09:40:15.341Z,0.80
2023-11-01T09:43:16.924Z,0.80
2023-11-01T09:46:20.842Z,1.00
2023-11-01T09:49:22.403Z,1.67
2023-11-01T09:52:23.973Z,1.10
2023-11-01T09:55:25.525Z,0.80
2023-11-01T09:58:27.160Z,0.70
2023-11-01T10:01:30.797Z,0.67
2023-11-01T10:04:32.371Z,0.93
2023-11-01T10:07:33.934Z,0.77
2023-11-01T10:10:35.468Z,0.70
2023-11-01T10:13:36.977Z,0.80
2023-11-01T10:16:38.596Z,0.70
2023-11-01T10:19:40.144Z,1.10
2023-11-01T10:22:41.645Z,0.70
2023-11-01T10:25:43.197Z,0.80
2023-11-01T10:28:46.828Z,1.10
2023-11-01T10:31:48.385Z,0.80
2023-11-01T10:34:49.924Z,0.70
2023-11-01T10:37:51.450Z,1.30
2023-11-01T10:40:52.986Z,0.90
2023-11-01T10:43:54.594Z,0.70
2023-11-01T10:46:56.230Z,0.70
2023-11-01T10:50:02.141Z,0.80
2023-11-01T10:53:05.866Z,0.90
2023-11-01T10:56:07.434Z,0.80
2023-11-01T10:59:08.953Z,0.80
2023-11-01T11:02:13.481Z,1.08
2023-11-01T11:05:15.028Z,0.60
2023-11-01T11:08:18.957Z,1.07
2023-11-01T11:11:23.571Z,0.90
2023-11-01T11:14:25.113Z,1.00
2023-11-01T11:17:26.708Z,0.80
2023-11-01T11:20:28.280Z,0.90
2023-11-01T11:23:29.839Z,0.90
2023-11-01T11:26:31.423Z,0.87
2023-11-01T11:29:32.996Z,0.80
2023-11-01T11:32:34.638Z,0.80
2023-11-01T11:35:36.223Z,0.80
2023-11-01T11:38:37.890Z,0.80
2023-11-01T11:41:41.916Z,0.80
2023-11-01T11:44:43.505Z,1.10
2023-11-01T11:47:45.093Z,0.80
2023-11-01T11:50:48.963Z,1.00
2023-11-01T11:53:50.527Z,1.10
2023-11-01T11:56:52.122Z,1.00
2023-11-01T11:59:56.155Z,1.03
2023-11-01T12:02:57.759Z,1.10
2023-11-01T12:05:59.416Z,0.87
2023-11-01T12:09:01.019Z,0.97
2023-11-01T12:12:02.643Z,0.87
2023-11-01T12:15:04.244Z,0.80
2023-11-01T12:18:05.884Z,0.90
2023-11-01T12:21:07.486Z,0.87
2023-11-01T12:24:08.994Z,0.70
2023-11-01T12:27:10.707Z,1.00
2023-11-01T12:30:12.312Z,0.70
2023-11-01T12:33:13.987Z,0.80
2023-11-01T12:36:15.583Z,0.60
2023-11-01T12:39:17.147Z,0.90
2023-11-01T12:42:18.726Z,0.60
2023-11-01T12:45:20.473Z,0.50
2023-11-01T12:48:22.147Z,0.60
2023-11-01T12:51:23.667Z,0.50
2023-11-01T12:54:25.235Z,0.50
2023-11-01T12:57:26.926Z,0.60
2023-11-01T13:00:28.501Z,0.70
2023-11-01T13:03:30.168Z,0.82
2023-11-01T13:06:31.740Z,0.80
2023-11-01T13:09:33.299Z,0.77
2023-11-01T13:12:34.999Z,0.90
2023-11-01T13:15:36.624Z,0.70
2023-11-01T13:18:38.274Z,0.57
2023-11-01T13:21:39.820Z,0.80
2023-11-01T13:24:41.397Z,0.80
2023-11-01T13:27:45.403Z,0.77
2023-11-01T13:30:47.024Z,0.70
2023-11-01T13:33:48.652Z,0.83
2023-11-01T13:36:50.172Z,0.80
2023-11-01T13:39:51.737Z,0.90
2023-11-01T13:42:53.250Z,0.83
2023-11-01T13:45:54.811Z,0.80
2023-11-01T13:48:56.319Z,0.70
2023-11-01T13:51:57.895Z,0.80
2023-11-01T13:54:59.451Z,0.97
2023-11-01T13:58:01.027Z,0.70
2023-11-01T14:01:02.680Z,1.10
2023-11-01T14:04:08.036Z,0.90
2023-11-01T14:07:09.710Z,1.00
2023-11-01T14:10:11.300Z,1.37
2023-11-01T14:13:15.006Z,1.60
2023-11-01T14:16:16.616Z,2.03
2023-11-01T14:19:18.180Z,2.10
2023-11-01T14:22:19.715Z,1.47
2023-11-01T14:25:21.257Z,1.60
2023-11-01T14:28:22.766Z,1.60
2023-11-01T14:31:24.322Z,1.70
2023-11-01T14:34:25.907Z,1.40
2023-11-01T14:37:27.477Z,1.40
2023-11-01T14:40:29.075Z,1.20
2023-11-01T14:43:30.626Z,1.20
2023-11-01T14:46:32.230Z,1.37
2023-11-01T14:49:33.804Z,1.70
2023-11-01T14:52:35.328Z,1.60
2023-11-01T14:55:36.933Z,1.40
2023-11-01T14:58:38.505Z,1.33
2023-11-01T15:01:40.032Z,1.40
2023-11-01T15:04:41.608Z,1.60
2023-11-01T15:07:43.160Z,1.17
2023-11-01T15:10:44.698Z,1.27
2023-11-01T15:13:46.259Z,1.53
2023-11-01T15:16:47.787Z,1.42
2023-11-01T15:19:49.339Z,1.27
2023-11-01T15:22:50.898Z,1.40
2023-11-01T15:25:52.435Z,1.50
2023-11-01T15:28:53.950Z,1.20
2023-11-01T15:31:55.519Z,1.20
2023-11-01T15:34:57.070Z,1.10
2023-11-01T15:37:58.673Z,1.20
2023-11-01T15:41:00.250Z,1.30
2023-11-01T15:44:01.798Z,1.20
2023-11-01T15:47:03.363Z,1.30
2023-11-01T15:50:04.912Z,0.87
2023-11-01T15:53:06.486Z,0.90
2023-11-01T15:56:08.054Z,1.13
2023-11-01T15:59:09.591Z,1.40
2023-11-01T16:02:11.140Z,1.27
2023-11-01T16:05:12.730Z,1.40
2023-11-01T16:08:14.338Z,1.40
2023-11-01T16:11:15.887Z,1.20
2023-11-01T16:14:17.401Z,1.33
2023-11-01T16:17:19.128Z,1.15
2023-11-01T16:20:20.663Z,1.38
2023-11-01T16:23:22.205Z,1.10
2023-11-01T16:26:23.741Z,1.73
2023-11-01T16:29:25.322Z,1.30
2023-11-01T16:32:26.873Z,1.17
2023-11-01T16:35:28.449Z,1.20
2023-11-01T16:38:29.976Z,1.13
2023-11-01T16:41:31.560Z,1.30
2023-11-01T16:44:33.099Z,1.70
2023-11-01T16:47:34.688Z,1.33
2023-11-01T16:50:36.292Z,1.40
2023-11-01T16:53:37.833Z,1.08
2023-11-01T16:56:39.426Z,1.00
2023-11-01T16:59:41.010Z,1.13
2023-11-01T17:02:48.133Z,1.00
2023-11-01T17:05:52.408Z,1.25
2023-11-01T17:08:54.008Z,1.20
2023-11-01T17:11:55.589Z,0.90
2023-11-01T17:14:57.230Z,1.10
2023-11-01T17:17:59.998Z,1.88
2023-11-01T17:21:01.713Z,1.10
2023-11-01T17:24:03.331Z,1.15
2023-11-01T17:27:04.968Z,1.00
2023-11-01T17:30:06.624Z,1.10
2023-11-01T17:33:08.239Z,1.20
2023-11-01T17:36:09.855Z,0.93
2023-11-01T17:39:11.575Z,0.90
2023-11-01T17:42:13.175Z,0.90
2023-11-01T17:45:14.811Z,1.10
2023-11-01T17:48:16.421Z,1.17
2023-11-01T17:51:18.030Z,0.90
2023-11-01T17:54:19.592Z,1.10
2023-11-01T17:57:21.170Z,1.37
2023-11-01T18:00:22.793Z,1.30
2023-11-01T18:03:24.436Z,1.30
2023-11-01T18:06:26.134Z,1.20
2023-11-01T18:09:27.747Z,1.30
2023-11-01T18:12:29.328Z,1.23
2023-11-01T18:15:30.913Z,1.23
2023-11-01T18:18:32.488Z,1.30
2023-11-01T18:21:34.073Z,1.50
2023-11-01T18:24:35.658Z,1.00
2023-11-01T18:27:37.216Z,1.20
2023-11-01T18:30:38.760Z,1.10
2023-11-01T18:33:40.399Z,1.00
2023-11-01T18:36:42.112Z,1.10
2023-11-01T18:39:43.675Z,0.90
2023-11-01T18:42:45.225Z,1.20
2023-11-01T18:45:46.734Z,1.17
2023-11-01T18:48:48.274Z,1.30
2023-11-01T18:51:49.793Z,1.13
2023-11-01T18:54:51.338Z,1.10
2023-11-01T18:57:52.930Z,1.20
2023-11-01T19:00:54.456Z,1.00
2023-11-01T19:03:56.035Z,1.13
2023-11-01T19:06:57.605Z,1.00
2023-11-01T19:09:59.172Z,1.00
2023-11-01T19:13:00.741Z,1.17
2023-11-01T19:16:02.286Z,1.10
2023-11-01T19:19:03.912Z,1.47
2023-11-01T19:22:05.491Z,1.20
2023-11-01T19:25:07.019Z,1.00
2023-11-01T19:28:08.579Z,1.53
2023-11-01T19:31:10.148Z,1.10
2023-11-01T19:34:11.796Z,1.20
2023-11-01T19:37:13.350Z,1.30
2023-11-01T19:40:14.865Z,1.30
2023-11-01T19:43:17.861Z,1.08
2023-11-01T19:46:19.421Z,1.10
2023-11-01T19:49:20.989Z,1.30
2023-11-01T19:52:22.608Z,1.10
2023-11-01T19:55:24.194Z,1.10
2023-11-01T19:58:25.755Z,1.03
2023-11-01T20:01:27.283Z,1.30
2023-11-01T20:04:28.836Z,0.80
2023-11-01T20:07:30.381Z,1.60
2023-11-01T20:10:31.941Z,1.50
2023-11-01T20:13:33.497Z,1.67
2023-11-01T20:16:35.056Z,1.83
2023-11-01T20:19:38.835Z,1.85
2023-11-01T20:22:40.492Z,1.55
2023-11-01T20:25:42.113Z,1.00
2023-11-01T20:28:43.688Z,1.20
2023-11-01T20:31:45.252Z,1.40
2023-11-01T20:34:46.827Z,1.30
2023-11-01T20:37:48.363Z,1.30
2023-11-01T20:40:49.971Z,1.38
2023-11-01T20:43:51.530Z,1.40
2023-11-01T20:46:53.105Z,1.20
2023-11-01T20:49:54.613Z,1.58
2023-11-01T20:52:56.233Z,1.00
2023-11-01T20:55:57.785Z,1.27
2023-11-01T20:58:59.348Z,1.40
2023-11-01T21:02:00.900Z,1.30
2023-11-01T21:05:02.477Z,1.47
2023-11-01T21:08:04.059Z,1.27
2023-11-01T21:11:05.610Z,1.67
2023-11-01T21:14:07.190Z,1.33
2023-11-01T21:17:08.746Z,1.07
2023-11-01T21:20:10.329Z,1.08
2023-11-01T21:23:11.907Z,1.13
2023-11-01T21:26:13.450Z,1.00
2023-11-01T21:29:15.038Z,1.50
2023-11-01T21:32:16.598Z,1.27
2023-11-01T21:35:28.840Z,1.20
2023-11-01T21:38:36.257Z,1.00
2023-11-01T21:41:37.765Z,1.10
2023-11-01T21:44:39.309Z,1.50
2023-11-01T21:47:40.913Z,1.20
2023-11-01T21:50:42.542Z,1.30
2023-11-01T21:53:44.065Z,1.40
2023-11-01T21:56:45.654Z,0.90
2023-11-01T21:59:47.321Z,1.10
2023-11-01T22:02:49.068Z,1.30
2023-11-01T22:05:50.764Z,1.03
2023-11-01T22:08:52.453Z,1.00
2023-11-01T22:11:54.175Z,1.00
2023-11-01T22:14:55.781Z,1.23
2023-11-01T22:17:57.417Z,1.40
2023-11-01T22:20:59.019Z,1.00
2023-11-01T22:24:00.544Z,1.07
2023-11-01T22:27:02.126Z,1.10
2023-11-01T22:30:03.700Z,0.90
2023-11-01T22:33:05.357Z,1.00
2023-11-01T22:36:07.004Z,0.90
2023-11-01T22:39:08.683Z,0.83
2023-11-01T22:42:10.313Z,0.90
2023-11-01T22:45:11.911Z,1.20
2023-11-01T22:48:13.687Z,0.93
2023-11-01T22:51:15.523Z,0.93
2023-11-01T22:54:17.100Z,1.00
2023-11-01T22:57:18.747Z,1.00
2023-11-01T23:00:20.421Z,1.20
2023-11-01T23:03:22.071Z,1.00
2023-11-01T23:06:23.724Z,0.90
2023-11-01T23:09:25.331Z,1.00
2023-11-01T23:12:27.045Z,1.20
2023-11-01T23:15:28.672Z,1.00
2023-11-01T23:18:30.255Z,0.90
2023-11-01T23:21:31.876Z,0.90
2023-11-01T23:24:33.388Z,0.90
2023-11-01T23:27:35.041Z,0.90
2023-11-01T23:30:36.631Z,0.77
2023-11-01T23:33:38.232Z,1.00
2023-11-01T23:36:39.897Z,1.10
2023-11-01T23:39:41.555Z,1.00
2023-11-01T23:42:43.100Z,0.90
2023-11-01T23:45:44.892Z,0.90
2023-11-01T23:48:46.545Z,0.90
2023-11-01T23:51:48.110Z,1.03
2023-11-01T23:54:49.660Z,1.20
2023-11-01T23:57:51.228Z,0.93
